Terminal Aerodrome Forecast
Issued by NWS Buffalo, NY

Home | Current Version | Previous Version | Text Only | Print | Product List | Glossary On
Versions: 1 2 3 4 5 6 7 8 9 10 11 12 13 14 15 16 17 18 19 20 21 22 23 24
000
FTUS41 KBUF 242112 AAC
TAFART
TAF AMD
KART 242112Z 2421/2518 06007KT P6SM BKN045
     FM250800 17014G20KT P6SM BKN050
     FM251700 20016G28KT 6SM -SHRA OVC015=

USA.gov is the U.S. government's official web portal to all federal, state and local government web resources and services.